首页
METAR-TAF:

METAR-TAF

机场 :

温泉城, 阿肯色州, 美国

纬度: 34-28-41N, 经度: 093-05-46W, 海拔: 165米

METAR: 丢失

时间: 15:30 (20:30 UTC)

预报

该预报发布于3小时和5分钟前的17:25 UTC
预报有效从15日的 18点(UTC)到 16日的 18点(UTC)
风速6节,风向南转南东
能見度: 10公里
少量云层高于2000英尺
从 16日的 0600点(UTC)
风速3节,风向多变
能見度: 10公里
天空无云

TAF: KHOT 151725Z 1518/1618 16006KT P6SM FEW020 FM160600 VRB03KT P6SM SKC AMD NOT SKED

超过4000个机场的气象观测和天气预报(METAR&TAF报告)。

可查询的气象台以黄色和红色小点在地图上表示。

将鼠标移到小点上方,可查看气象台名称。

然后点击查看天气观测和预报。

如需切换地图:点击带黑十字的绿色按钮放大地图;点击带横线的绿色按钮缩小地图;或者点击绿色箭头查看邻近地区的地图。


METAR-TAF: